Time;durP1;ratioP1;P1;durP2;ratioP2;P2;SDS_P1;SDS_P2;PMS_P1;PMS_P2;Temp;Humidity;BMP_temperature;BMP_pressure;BME280_temperature;BME280_humidity;BME280_pressure;Samples;Min_cycle;Max_cycle;Signal;HPM_P1;HPM_P2
2024/04/18 00:00:50;;;;;;;4.97;4.57;;;6.60;99.90;;;;;;4477569;26;20313;-55
2024/04/18 00:02:51;;;;;;;5.23;4.77;;;6.60;99.90;;;;;;4509116;26;20226;-56
2024/04/18 00:04:52;;;;;;;4.70;4.30;;;6.60;99.90;;;;;;4508234;26;20246;-56
2024/04/18 00:06:52;;;;;;;5.10;4.60;;;6.60;99.90;;;;;;4509007;26;20318;-55
2024/04/18 00:08:53;;;;;;;5.37;4.87;;;6.60;99.90;;;;;;4484786;26;20281;-55
2024/04/18 00:10:57;;;;;;;5.13;4.73;;;6.60;99.90;;;;;;4479430;26;20326;-56
2024/04/18 00:12:58;;;;;;;4.80;4.30;;;6.60;99.90;;;;;;4485516;26;20315;-55
2024/04/18 00:14:58;;;;;;;5.03;4.63;;;6.60;99.90;;;;;;4508934;26;20246;-56
2024/04/18 00:16:59;;;;;;;5.07;4.67;;;6.60;99.90;;;;;;4508645;26;20234;-56
2024/04/18 00:18:59;;;;;;;5.23;4.83;;;6.50;99.90;;;;;;4508683;26;20234;-55
2024/04/18 00:21:00;;;;;;;4.80;4.37;;;6.50;99.90;;;;;;4509093;26;20233;-55
2024/04/18 00:23:01;;;;;;;4.83;4.33;;;6.50;99.90;;;;;;4508762;26;20284;-55
2024/04/18 00:25:02;;;;;;;5.43;4.93;;;6.50;99.90;;;;;;4477421;26;20270;-56
2024/04/18 00:27:03;;;;;;;5.13;4.67;;;6.40;99.90;;;;;;4484814;26;20242;-55
2024/04/18 00:29:04;;;;;;;5.53;4.90;;;6.40;99.90;;;;;;4477059;26;20728;-55
2024/04/18 00:31:04;;;;;;;5.47;4.97;;;6.40;99.90;;;;;;4477417;26;20292;-56
2024/04/18 00:33:05;;;;;;;5.53;5.03;;;6.30;99.90;;;;;;4502221;26;20230;-55
2024/04/18 00:35:06;;;;;;;5.30;4.50;;;6.30;99.90;;;;;;4508715;26;20238;-55
2024/04/18 00:37:07;;;;;;;5.20;4.70;;;6.30;99.90;;;;;;4476948;26;20242;-55
2024/04/18 00:39:07;;;;;;;5.10;4.60;;;6.30;99.90;;;;;;4508308;26;20238;-55
2024/04/18 00:41:09;;;;;;;6.80;5.03;;;6.20;99.90;;;;;;4508439;26;20238;-55
2024/04/18 00:43:09;;;;;;;5.17;4.67;;;6.20;99.90;;;;;;4508574;26;20269;-56
2024/04/18 00:45:10;;;;;;;5.20;4.70;;;6.20;99.90;;;;;;4508213;26;20783;-56
2024/04/18 00:47:13;;;;;;;5.10;4.63;;;6.20;99.90;;;;;;4476870;26;20720;-55
2024/04/18 00:49:13;;;;;;;4.73;4.33;;;6.10;99.90;;;;;;4500814;26;20265;-56
2024/04/18 00:51:14;;;;;;;4.33;4.00;;;6.10;99.90;;;;;;4508209;26;20235;-55
2024/04/18 00:53:14;;;;;;;5.40;4.90;;;6.10;99.90;;;;;;4508540;26;20563;-55
2024/04/18 00:55:15;;;;;;;5.33;4.70;;;6.10;99.90;;;;;;4507867;26;20632;-64
2024/04/18 00:57:17;;;;;;;5.20;4.70;;;6.10;99.90;;;;;;4500635;26;20590;-55
2024/04/18 00:59:18;;;;;;;5.23;4.73;;;6.10;99.90;;;;;;4507848;26;20226;-55
2024/04/18 01:01:20;;;;;;;5.10;4.70;;;6.10;99.90;;;;;;4489748;26;20222;-55
2024/04/18 01:03:20;;;;;;;5.10;4.60;;;6.20;99.90;;;;;;4510501;26;20322;-56
2024/04/18 01:05:21;;;;;;;5.63;4.67;;;6.10;99.90;;;;;;4508059;26;20226;-56
2024/04/18 01:07:22;;;;;;;4.83;4.43;;;6.10;99.90;;;;;;4510435;26;20270;-56
2024/04/18 01:09:22;;;;;;;4.90;4.50;;;6.10;99.90;;;;;;4510062;26;20223;-55
2024/04/18 01:11:23;;;;;;;5.17;4.67;;;6.10;99.90;;;;;;4510319;26;20956;-56
2024/04/18 01:13:34;;;;;;;4.70;4.23;;;6.10;99.90;;;;;;4510534;26;20253;-56
2024/04/18 01:15:34;;;;;;;4.57;4.17;;;6.10;99.90;;;;;;4508203;26;20611;-55
2024/04/18 01:17:36;;;;;;;4.70;4.30;;;6.10;99.90;;;;;;4512428;26;20238;-55
2024/04/18 01:19:38;;;;;;;4.50;4.10;;;6.10;99.90;;;;;;4480556;26;20235;-55
2024/04/18 01:21:38;;;;;;;4.50;4.10;;;6.10;99.90;;;;;;4512945;26;21009;-56
2024/04/18 01:23:39;;;;;;;4.50;4.10;;;6.10;99.90;;;;;;4499097;26;20270;-55
2024/04/18 01:25:40;;;;;;;6.10;4.70;;;6.10;99.90;;;;;;4511191;26;20226;-56
2024/04/18 01:27:41;;;;;;;4.97;4.47;;;6.10;99.90;;;;;;4512697;26;20716;-56
2024/04/18 01:29:42;;;;;;;4.83;4.33;;;6.10;99.90;;;;;;4513198;26;20618;-56
2024/04/18 01:31:42;;;;;;;4.97;4.57;;;6.10;99.90;;;;;;4512845;26;20235;-55
2024/04/18 01:33:43;;;;;;;4.43;4.03;;;6.10;99.90;;;;;;4513024;26;20295;-56
2024/04/18 01:35:44;;;;;;;5.30;4.30;;;6.10;99.90;;;;;;4479609;26;20262;-56
2024/04/18 01:37:44;;;;;;;4.73;4.33;;;6.10;99.90;;;;;;4502997;26;20343;-56
2024/04/18 01:39:45;;;;;;;5.47;4.87;;;6.10;99.90;;;;;;4512940;26;20230;-55
2024/04/18 01:41:46;;;;;;;5.00;4.60;;;6.10;99.90;;;;;;4513040;26;20242;-55
2024/04/18 01:43:46;;;;;;;5.30;4.63;;;6.10;99.90;;;;;;4512496;26;20606;-55
2024/04/18 01:45:47;;;;;;;4.70;4.20;;;6.10;99.90;;;;;;4510816;26;20230;-55
2024/04/18 01:47:47;;;;;;;5.47;4.80;;;6.10;99.90;;;;;;4511867;26;20280;-55
2024/04/18 01:49:48;;;;;;;5.13;4.60;;;6.10;99.90;;;;;;4512544;26;20230;-55
2024/04/18 01:51:49;;;;;;;5.13;4.63;;;6.10;99.90;;;;;;4512417;26;20273;-55
2024/04/18 01:53:49;;;;;;;4.97;4.57;;;6.10;99.90;;;;;;4511568;26;20599;-55
2024/04/18 01:55:50;;;;;;;5.00;4.47;;;6.10;99.90;;;;;;4511905;26;20235;-56
2024/04/18 01:57:50;;;;;;;4.97;4.57;;;6.10;99.90;;;;;;4512556;26;20238;-55
2024/04/18 01:59:51;;;;;;;5.70;4.83;;;6.10;99.90;;;;;;4506335;26;20926;-55
2024/04/18 02:01:54;;;;;;;4.93;4.53;;;6.10;99.90;;;;;;4498521;26;20329;-56
2024/04/18 02:03:54;;;;;;;5.37;4.40;;;6.10;99.90;;;;;;4479603;26;20247;-56
2024/04/18 02:05:55;;;;;;;5.07;4.67;;;6.10;99.90;;;;;;4511995;26;20281;-56
2024/04/18 02:07:55;;;;;;;4.80;4.40;;;6.20;99.90;;;;;;4511733;26;20230;-56
2024/04/18 02:09:56;;;;;;;4.87;4.47;;;6.20;99.90;;;;;;4512974;26;20651;-56
2024/04/18 02:11:56;;;;;;;4.43;4.03;;;6.20;99.90;;;;;;4512652;26;20226;-55
2024/04/18 02:13:57;;;;;;;4.77;4.20;;;6.20;99.90;;;;;;4510203;26;20281;-56
2024/04/18 02:15:58;;;;;;;5.17;4.70;;;6.20;99.90;;;;;;4512453;26;20286;-56
2024/04/18 02:17:58;;;;;;;4.90;4.50;;;6.20;99.90;;;;;;4512560;26;20280;-55
2024/04/18 02:19:59;;;;;;;4.93;4.53;;;6.20;99.90;;;;;;4513216;26;20291;-56
2024/04/18 02:21:59;;;;;;;5.63;5.13;;;6.20;99.90;;;;;;4512155;26;20277;-55
2024/04/18 02:24:00;;;;;;;5.20;4.70;;;6.20;99.90;;;;;;4510303;26;20230;-56
2024/04/18 02:26:01;;;;;;;5.70;5.20;;;6.20;99.90;;;;;;4512172;26;20230;-56
2024/04/18 02:28:01;;;;;;;5.83;5.33;;;6.10;99.90;;;;;;4511146;26;20238;-56
2024/04/18 02:30:08;;;;;;;5.73;5.20;;;6.20;99.90;;;;;;4512223;26;20245;-55
2024/04/18 02:32:08;;;;;;;5.90;5.40;;;6.10;99.90;;;;;;4512344;26;20230;-55
2024/04/18 02:34:09;;;;;;;5.33;4.93;;;6.10;99.90;;;;;;4510293;26;20594;-56
2024/04/18 02:36:10;;;;;;;5.30;4.87;;;6.10;99.90;;;;;;4481272;26;20266;-56
2024/04/18 02:38:10;;;;;;;5.23;4.80;;;6.20;99.90;;;;;;4507828;26;20234;-55
2024/04/18 02:40:11;;;;;;;5.63;5.13;;;6.20;99.90;;;;;;4512540;26;20301;-55
2024/04/18 02:42:12;;;;;;;5.17;4.77;;;6.20;99.90;;;;;;4511819;26;20234;-55
2024/04/18 02:44:12;;;;;;;5.30;4.90;;;6.20;99.90;;;;;;4510499;26;20281;-55
2024/04/18 02:46:13;;;;;;;5.60;5.10;;;6.20;99.90;;;;;;4512403;26;20227;-56
2024/04/18 02:48:13;;;;;;;5.30;4.80;;;6.20;99.90;;;;;;4511660;26;20344;-56
2024/04/18 02:50:14;;;;;;;5.20;4.80;;;6.20;99.90;;;;;;4512436;26;20272;-55
2024/04/18 02:52:15;;;;;;;6.20;5.20;;;6.20;99.90;;;;;;4510644;26;20223;-55
2024/04/18 02:54:15;;;;;;;5.63;5.13;;;6.20;99.90;;;;;;4511396;26;20242;-56
2024/04/18 02:56:16;;;;;;;5.57;5.07;;;6.20;99.90;;;;;;4511517;26;21152;-56
2024/04/18 02:58:16;;;;;;;6.17;5.57;;;6.20;99.90;;;;;;4511721;26;20227;-55
2024/04/18 03:00:17;;;;;;;5.90;5.30;;;6.20;99.90;;;;;;4512318;26;20277;-55
2024/04/18 03:02:18;;;;;;;5.77;5.27;;;6.20;99.90;;;;;;4488330;26;20602;-55
2024/04/18 03:04:19;;;;;;;6.17;5.57;;;6.20;99.90;;;;;;4481962;26;20228;-56
2024/04/18 03:06:19;;;;;;;6.20;5.60;;;6.20;99.90;;;;;;4482149;26;20768;-56
2024/04/18 03:08:20;;;;;;;5.87;5.37;;;6.20;99.90;;;;;;4481740;26;20228;-56
2024/04/18 03:10:20;;;;;;;6.70;5.77;;;6.20;99.90;;;;;;4482143;26;20232;-55
2024/04/18 03:12:21;;;;;;;5.87;5.37;;;6.20;99.90;;;;;;4482072;26;20315;-55
2024/04/18 03:14:22;;;;;;;6.30;5.70;;;6.20;99.90;;;;;;4511459;26;20301;-55
2024/04/18 03:16:22;;;;;;;6.10;5.50;;;6.20;99.90;;;;;;4511640;26;20769;-55
2024/04/18 03:18:23;;;;;;;6.53;5.93;;;6.20;99.90;;;;;;4470649;26;20726;-56
2024/04/18 03:20:23;;;;;;;6.23;5.63;;;6.20;99.90;;;;;;4509492;26;20666;-56
2024/04/18 03:22:24;;;;;;;7.07;6.37;;;6.20;99.90;;;;;;4510247;26;20265;-55
2024/04/18 03:24:25;;;;;;;6.53;5.93;;;6.20;99.90;;;;;;4511416;26;20238;-56
2024/04/18 03:26:25;;;;;;;7.17;6.40;;;6.20;99.90;;;;;;4510836;26;20234;-55
2024/04/18 03:28:26;;;;;;;6.33;5.73;;;6.20;99.90;;;;;;4508799;26;20770;-55
2024/04/18 03:30:26;;;;;;;6.50;5.90;;;6.20;99.90;;;;;;4509455;26;20575;-55
2024/04/18 03:32:27;;;;;;;6.50;5.90;;;6.30;99.90;;;;;;4509214;26;20242;-55
2024/04/18 03:34:28;;;;;;;5.97;5.37;;;6.20;99.90;;;;;;4509563;26;20269;-55
2024/04/18 03:36:29;;;;;;;6.70;6.10;;;6.20;99.90;;;;;;4511717;26;20230;-55
2024/04/18 03:38:30;;;;;;;7.27;6.47;;;6.20;99.90;;;;;;4510565;26;20262;-56
2024/04/18 03:40:32;;;;;;;6.67;6.07;;;6.20;99.90;;;;;;4508956;26;20367;-56
2024/04/18 03:42:32;;;;;;;5.97;5.37;;;6.30;99.90;;;;;;4510633;26;20350;-55
2024/04/18 03:44:33;;;;;;;6.40;5.80;;;6.30;99.90;;;;;;4511062;26;20242;-55
2024/04/18 03:46:38;;;;;;;6.47;5.87;;;6.20;99.90;;;;;;4509563;26;20724;-55
2024/04/18 03:48:38;;;;;;;6.77;6.17;;;6.30;99.90;;;;;;4509818;26;20409;-55
2024/04/18 03:50:39;;;;;;;5.97;5.47;;;6.30;99.90;;;;;;4509184;26;20226;-55
2024/04/18 03:52:40;;;;;;;6.67;6.07;;;6.30;99.90;;;;;;4510287;26;20277;-56
2024/04/18 03:54:40;;;;;;;6.77;6.10;;;6.30;99.90;;;;;;4511053;26;20314;-56
2024/04/18 03:56:41;;;;;;;6.77;6.20;;;6.30;99.90;;;;;;4510762;26;20747;-56
2024/04/18 03:58:41;;;;;;;7.00;6.30;;;6.30;99.90;;;;;;4510505;26;20272;-56
2024/04/18 04:00:42;;;;;;;7.00;6.40;;;6.30;99.90;;;;;;4509115;26;20260;-56
2024/04/18 04:02:43;;;;;;;6.70;6.03;;;6.30;99.90;;;;;;4479226;26;20231;-56
2024/04/18 04:04:43;;;;;;;7.13;6.43;;;6.30;99.90;;;;;;4461332;26;20611;-56
2024/04/18 04:06:44;;;;;;;6.57;5.97;;;6.30;99.90;;;;;;4498690;26;20819;-56
2024/04/18 04:08:44;;;;;;;6.23;5.60;;;6.30;99.90;;;;;;4510382;26;20270;-56
2024/04/18 04:10:45;;;;;;;7.40;6.70;;;6.20;99.90;;;;;;4508875;26;20751;-56
2024/04/18 04:12:45;;;;;;;6.80;6.20;;;6.20;99.90;;;;;;4510355;26;20548;-56
2024/04/18 04:14:46;;;;;;;6.90;6.30;;;6.20;99.90;;;;;;4510656;26;20226;-56
2024/04/18 04:16:46;;;;;;;6.97;6.30;;;6.20;99.90;;;;;;4510558;26;20273;-56
2024/04/18 04:18:54;;;;;;;6.73;6.03;;;6.20;99.90;;;;;;4509431;26;20230;-56
2024/04/18 04:20:55;;;;;;;7.20;6.50;;;6.20;99.90;;;;;;4508923;26;20285;-56
2024/04/18 04:22:55;;;;;;;7.63;6.93;;;6.20;99.90;;;;;;4510379;26;20568;-56
2024/04/18 04:24:56;;;;;;;7.93;7.13;;;6.20;99.90;;;;;;4510937;26;20284;-56
2024/04/18 04:26:57;;;;;;;6.80;6.20;;;6.20;99.90;;;;;;4509904;26;20246;-56
2024/04/18 04:28:57;;;;;;;6.97;6.37;;;6.20;99.90;;;;;;4508599;26;20234;-56
2024/04/18 04:30:59;;;;;;;6.57;5.97;;;6.20;99.90;;;;;;4508716;26;20231;-56
2024/04/18 04:33:00;;;;;;;6.80;5.90;;;6.10;99.90;;;;;;4509194;26;20806;-56
2024/04/18 04:35:01;;;;;;;6.80;6.20;;;6.10;99.90;;;;;;4509004;26;20346;-56
2024/04/18 04:37:01;;;;;;;6.83;6.13;;;6.10;99.90;;;;;;4508957;26;20230;-56
2024/04/18 04:39:02;;;;;;;6.90;6.20;;;6.10;99.90;;;;;;4508159;26;20595;-56
2024/04/18 04:41:02;;;;;;;6.57;5.97;;;6.10;99.90;;;;;;4508718;26;20230;-56
2024/04/18 04:43:03;;;;;;;6.43;5.83;;;6.10;99.90;;;;;;4478569;26;20269;-56
2024/04/18 04:45:04;;;;;;;6.20;5.60;;;6.10;99.90;;;;;;4489877;26;20239;-56
2024/04/18 04:47:07;;;;;;;7.03;6.33;;;6.10;99.90;;;;;;4477606;26;20243;-56
2024/04/18 04:49:08;;;;;;;6.50;5.90;;;6.10;99.90;;;;;;4501141;26;20230;-56
2024/04/18 04:51:08;;;;;;;6.33;5.77;;;6.10;99.90;;;;;;4509411;26;20230;-56
2024/04/18 04:53:09;;;;;;;6.43;5.93;;;6.10;99.90;;;;;;4509465;26;20666;-56
2024/04/18 04:55:09;;;;;;;6.57;5.97;;;6.10;99.90;;;;;;4502651;26;20268;-56
2024/04/18 04:57:11;;;;;;;6.43;5.83;;;6.10;99.90;;;;;;4511158;26;20226;-56
2024/04/18 04:59:11;;;;;;;6.20;5.67;;;6.10;99.90;;;;;;4511283;26;20238;-56
2024/04/18 05:01:12;;;;;;;6.50;5.90;;;6.10;99.90;;;;;;4512376;26;20349;-57
2024/04/18 05:03:12;;;;;;;6.80;6.20;;;6.10;99.90;;;;;;4512952;26;20260;-57
2024/04/18 05:05:13;;;;;;;6.63;6.03;;;6.10;99.90;;;;;;4481585;26;20274;-57
2024/04/18 05:07:14;;;;;;;7.00;6.30;;;6.10;99.90;;;;;;4512228;26;20261;-57
2024/04/18 05:09:16;;;;;;;6.60;6.00;;;6.10;99.90;;;;;;4511242;26;20222;-57
2024/04/18 05:11:17;;;;;;;6.10;5.50;;;6.10;99.90;;;;;;4512074;26;20221;-56
2024/04/18 05:13:17;;;;;;;6.60;6.00;;;6.10;99.90;;;;;;4512255;26;20269;-56
2024/04/18 05:15:18;;;;;;;6.43;5.83;;;6.20;99.90;;;;;;4512110;26;20689;-56
2024/04/18 05:17:20;;;;;;;6.17;5.57;;;6.20;99.90;;;;;;4504821;26;20269;-56
2024/04/18 05:19:20;;;;;;;6.30;5.33;;;6.20;99.90;;;;;;4511248;26;20277;-56
2024/04/18 05:21:21;;;;;;;6.33;5.73;;;6.20;99.90;;;;;;4511689;26;20286;-57
2024/04/18 05:23:21;;;;;;;6.47;5.87;;;6.20;99.90;;;;;;4480612;26;20224;-56
2024/04/18 05:25:25;;;;;;;6.23;5.73;;;6.20;99.90;;;;;;4511548;26;20230;-56
2024/04/18 05:27:25;;;;;;;6.90;5.93;;;6.20;99.90;;;;;;4511399;26;20227;-56
2024/04/18 05:31:50;;;;;;;6.43;5.83;;;6.20;99.90;;;;;;4510634;26;20622;-56
2024/04/18 05:33:50;;;;;;;6.67;6.07;;;6.20;99.90;;;;;;4511860;26;20273;-56
2024/04/18 05:35:51;;;;;;;6.57;5.97;;;6.20;99.90;;;;;;4511282;26;20716;-56
2024/04/18 05:37:52;;;;;;;6.33;5.73;;;6.20;99.90;;;;;;4511667;26;20231;-56
2024/04/18 05:39:52;;;;;;;7.20;6.50;;;6.20;99.90;;;;;;4510765;26;20230;-56
2024/04/18 05:41:54;;;;;;;6.87;6.27;;;6.20;99.90;;;;;;4511992;26;20265;-56
2024/04/18 05:43:55;;;;;;;7.30;6.20;;;6.20;99.90;;;;;;4512552;26;20227;-56
2024/04/18 05:45:55;;;;;;;7.20;6.50;;;6.20;99.90;;;;;;4481286;26;20232;-56
2024/04/18 05:47:56;;;;;;;7.37;6.67;;;6.30;99.90;;;;;;4511803;26;20230;-56
2024/04/18 05:49:56;;;;;;;7.13;6.50;;;6.30;99.90;;;;;;4479454;26;20231;-56
2024/04/18 05:51:57;;;;;;;7.43;6.77;;;6.30;99.90;;;;;;4465961;26;20271;-56
2024/04/18 05:53:58;;;;;;;8.63;7.00;;;6.30;99.90;;;;;;4502859;26;20735;-56
2024/04/18 05:55:58;;;;;;;7.20;6.50;;;6.30;99.90;;;;;;4480355;26;20235;-56
2024/04/18 05:58:00;;;;;;;7.53;6.77;;;6.40;99.90;;;;;;4489328;26;20712;-56
2024/04/18 06:00:00;;;;;;;7.73;6.93;;;6.30;99.90;;;;;;4511018;26;20277;-56
2024/04/18 06:02:01;;;;;;;6.67;6.07;;;6.40;99.90;;;;;;4511895;26;20234;-56
2024/04/18 06:04:01;;;;;;;7.40;6.70;;;6.40;99.90;;;;;;4116593;26;10000220;-56
2024/04/18 06:06:02;;;;;;;7.63;6.93;;;6.40;99.90;;;;;;4507688;26;20842;-56
2024/04/18 06:08:03;;;;;;;7.13;6.53;;;6.40;99.90;;;;;;4507552;26;20230;-56
2024/04/18 06:10:04;;;;;;;7.30;6.57;;;6.40;99.90;;;;;;4507759;26;20719;-55
2024/04/18 06:12:05;;;;;;;7.13;6.43;;;6.50;99.90;;;;;;4499094;26;20351;-55
2024/04/18 06:14:06;;;;;;;7.17;5.50;;;6.40;99.90;;;;;;4508051;26;20719;-57
2024/04/18 06:16:06;;;;;;;6.50;5.90;;;6.40;99.90;;;;;;4507198;26;20322;-55
2024/04/18 06:18:07;;;;;;;6.97;6.17;;;6.40;99.90;;;;;;4506411;26;20832;-55
2024/04/18 06:20:08;;;;;;;6.93;6.33;;;6.40;99.90;;;;;;4507015;26;20234;-57
2024/04/18 06:22:08;;;;;;;7.20;6.47;;;6.50;99.90;;;;;;4507037;26;20626;-55
2024/04/18 06:24:09;;;;;;;7.67;6.70;;;6.50;99.90;;;;;;4502477;26;20229;-56
2024/04/18 06:26:10;;;;;;;7.80;7.10;;;6.50;99.90;;;;;;4482176;26;20750;-57
2024/04/18 06:28:12;;;;;;;8.03;7.13;;;6.50;99.90;;;;;;4505649;26;20226;-55
2024/04/18 06:30:13;;;;;;;8.07;7.37;;;6.40;99.90;;;;;;4475782;26;20328;-55
2024/04/18 06:32:15;;;;;;;8.70;7.80;;;6.40;99.90;;;;;;4462675;26;20275;-56
2024/04/18 06:34:16;;;;;;;8.10;7.33;;;6.40;99.90;;;;;;4468222;26;20304;-56
2024/04/18 06:36:16;;;;;;;7.80;7.10;;;6.50;99.90;;;;;;4504229;26;20779;-56
2024/04/18 06:38:17;;;;;;;7.77;6.97;;;6.50;99.90;;;;;;4505775;26;20235;-57
2024/04/18 06:40:23;;;;;;;8.03;7.20;;;6.50;99.90;;;;;;4506414;26;20268;-55
2024/04/18 06:42:23;;;;;;;8.47;7.67;;;6.50;99.90;;;;;;4475447;26;20291;-56
2024/04/18 06:44:24;;;;;;;8.20;6.53;;;6.50;99.90;;;;;;4507471;26;20269;-56
2024/04/18 06:46:25;;;;;;;7.33;6.63;;;6.50;99.90;;;;;;4506425;26;20226;-55
2024/04/18 06:48:25;;;;;;;7.20;6.50;;;6.60;99.90;;;;;;4505671;26;20238;-56
2024/04/18 06:50:26;;;;;;;7.23;6.53;;;6.60;99.90;;;;;;4506965;26;20433;-56
2024/04/18 06:52:27;;;;;;;6.93;6.27;;;6.70;99.90;;;;;;4509034;26;20273;-56
2024/04/18 06:54:27;;;;;;;7.60;6.90;;;6.70;99.90;;;;;;4510484;26;20234;-55
2024/04/18 06:56:28;;;;;;;6.50;6.00;;;6.70;99.90;;;;;;4506148;26;20764;-56
2024/04/18 06:58:29;;;;;;;6.73;6.13;;;6.70;99.90;;;;;;4509963;26;20230;-56
2024/04/18 07:00:29;;;;;;;7.10;5.97;;;6.80;99.90;;;;;;4511266;26;20276;-56
2024/04/18 07:02:30;;;;;;;6.77;6.07;;;6.80;99.90;;;;;;4481463;26;20290;-55
2024/04/18 07:04:31;;;;;;;6.93;6.23;;;6.80;99.90;;;;;;4481536;26;20247;-56
2024/04/18 07:06:32;;;;;;;6.20;5.60;;;6.90;99.90;;;;;;4495917;26;20226;-56
2024/04/18 07:08:34;;;;;;;6.40;5.63;;;7.00;99.90;;;;;;4479032;26;20717;-56
2024/04/18 07:10:35;;;;;;;5.93;5.43;;;7.00;99.90;;;;;;4508642;26;20238;-56
2024/04/18 07:12:36;;;;;;;6.30;5.17;;;7.00;99.90;;;;;;4512217;26;20231;-55
2024/04/18 07:14:36;;;;;;;7.13;5.47;;;7.00;99.90;;;;;;4511497;26;20227;-56
2024/04/18 07:16:37;;;;;;;5.50;4.90;;;7.10;99.90;;;;;;4510757;26;20234;-56
2024/04/18 07:18:38;;;;;;;6.53;4.90;;;7.10;99.90;;;;;;4479794;26;20243;-56
2024/04/18 07:20:38;;;;;;;5.20;4.70;;;7.10;99.90;;;;;;4511609;26;20778;-56
2024/04/18 07:22:40;;;;;;;4.80;4.30;;;7.10;99.90;;;;;;4512285;26;20234;-56
2024/04/18 07:24:44;;;;;;;4.83;4.33;;;7.10;99.90;;;;;;4511956;26;20277;-56
2024/04/18 07:26:44;;;;;;;5.27;4.20;;;7.20;99.90;;;;;;4509883;26;20608;-56
2024/04/18 07:28:45;;;;;;;4.73;4.33;;;7.20;99.90;;;;;;4510905;26;20238;-56
2024/04/18 07:30:46;;;;;;;4.40;4.00;;;7.30;99.90;;;;;;4512453;26;20234;-56
2024/04/18 07:32:46;;;;;;;4.73;4.20;;;7.30;99.90;;;;;;4512184;26;20309;-56
2024/04/18 07:34:47;;;;;;;4.50;4.10;;;7.30;99.90;;;;;;4486692;26;20235;-56
2024/04/18 07:36:48;;;;;;;4.80;3.97;;;7.30;99.90;;;;;;4509436;26;20223;-56
2024/04/18 07:38:49;;;;;;;4.20;3.67;;;7.40;99.90;;;;;;4510618;26;20342;-56
2024/04/18 07:40:49;;;;;;;4.17;3.73;;;7.40;99.90;;;;;;4510160;26;20632;-56
2024/04/18 07:42:50;;;;;;;4.43;3.50;;;7.40;99.90;;;;;;4510019;26;20332;-56
2024/04/18 07:44:51;;;;;;;3.93;3.50;;;7.40;99.90;;;;;;4511586;26;20651;-56
2024/04/18 07:46:51;;;;;;;4.10;3.20;;;7.50;99.90;;;;;;4500437;26;20222;-55
2024/04/18 07:48:52;;;;;;;4.40;3.33;;;7.50;99.90;;;;;;4479719;26;20335;-56
2024/04/18 07:50:52;;;;;;;3.27;2.97;;;7.50;99.90;;;;;;4512112;26;20285;-56
2024/04/18 07:52:53;;;;;;;3.80;2.90;;;7.50;99.90;;;;;;4511929;26;20269;-59
2024/04/18 07:54:53;;;;;;;3.30;3.00;;;7.50;99.90;;;;;;4511223;26;20274;-56
2024/04/18 07:56:54;;;;;;;4.33;3.17;;;7.50;99.90;;;;;;4509531;26;20253;-56
2024/04/18 07:58:54;;;;;;;3.80;3.30;;;7.50;99.90;;;;;;4511519;26;20230;-56
2024/04/18 08:00:55;;;;;;;3.23;2.87;;;7.50;99.90;;;;;;4511469;26;20277;-55
2024/04/18 08:02:56;;;;;;;6.03;3.43;;;7.40;99.90;;;;;;4510896;26;20222;-55
2024/04/18 08:04:56;;;;;;;4.87;3.10;;;7.50;99.90;;;;;;4509939;26;20226;-55
2024/04/18 08:06:57;;;;;;;3.77;3.37;;;7.50;99.90;;;;;;4487435;26;20747;-56
2024/04/18 08:08:59;;;;;;;3.67;3.20;;;7.60;99.90;;;;;;4450320;26;20564;-56
2024/04/18 08:10:59;;;;;;;3.80;2.73;;;7.60;99.90;;;;;;4481885;26;20228;-55
2024/04/18 08:13:00;;;;;;;3.77;3.20;;;7.60;99.90;;;;;;4487469;26;20581;-55
2024/04/18 08:15:02;;;;;;;3.93;2.90;;;7.70;99.90;;;;;;4509498;26;20581;-56
2024/04/18 08:17:03;;;;;;;4.37;2.80;;;7.60;99.90;;;;;;4510066;26;20754;-56
2024/04/18 08:19:03;;;;;;;4.03;2.67;;;7.50;90.60;;;;;;4511295;26;20274;-56
2024/04/18 08:21:04;;;;;;;2.97;2.20;;;7.60;99.30;;;;;;4511006;26;20828;-56
2024/04/18 08:23:05;;;;;;;2.30;2.00;;;7.60;96.20;;;;;;4511481;26;20234;-56
2024/04/18 08:25:06;;;;;;;5.37;2.47;;;7.70;74.00;;;;;;4507902;26;20277;-56
2024/04/18 08:27:07;;;;;;;2.10;1.90;;;7.70;62.20;;;;;;4512258;26;20679;-56
2024/04/18 08:29:08;;;;;;;2.80;2.07;;;7.80;38.60;;;;;;4514479;26;20222;-56
2024/04/18 08:31:08;;;;;;;2.80;2.00;;;7.90;28.10;;;;;;4482757;26;20227;-56
2024/04/18 08:33:11;;;;;;;3.40;1.90;;;7.90;1.00;;;;;;4513668;26;20797;-56
2024/04/18 08:35:14;;;;;;;2.43;1.73;;;7.90;1.00;;;;;;4512116;26;20277;-56
2024/04/18 08:37:14;;;;;;;4.93;1.97;;;8.10;1.00;;;;;;4514095;26;20303;-57
2024/04/18 08:39:18;;;;;;;1.90;1.47;;;8.10;1.00;;;;;;4513552;26;20658;-56
2024/04/18 08:41:19;;;;;;;4.17;1.83;;;8.20;1.00;;;;;;4513984;26;20234;-55
2024/04/18 08:43:20;;;;;;;4.07;2.10;;;8.30;99.90;;;;;;4514287;26;20265;-56
2024/04/18 08:45:33;;;;;;;2.93;1.90;;;8.30;1.00;;;;;;4511318;26;20230;-56
2024/04/18 08:47:36;;;;;;;2.37;1.40;;;8.20;1.00;;;;;;4511348;26;20230;-56
2024/04/18 08:49:38;;;;;;;2.23;1.90;;;8.30;99.90;;;;;;4482578;26;20261;-56
2024/04/18 08:51:40;;;;;;;3.90;1.60;;;8.40;99.90;;;;;;4493780;26;20759;-55
2024/04/18 08:53:41;;;;;;;2.03;1.30;;;8.60;99.90;;;;;;4513692;26;20227;-56
2024/04/18 08:55:50;;;;;;;3.13;1.77;;;8.60;6.50;;;;;;4496441;26;20324;-56
2024/04/18 08:58:00;;;;;;;2.37;1.53;;;8.70;1.00;;;;;;4475720;26;20273;-56
2024/04/18 09:00:03;;;;;;;2.93;1.80;;;8.50;1.00;;;;;;4508046;26;20613;-56
2024/04/18 09:02:04;;;;;;;2.60;1.50;;;8.60;99.90;;;;;;4508132;26;20775;-55
2024/04/18 09:04:04;;;;;;;1.37;1.00;;;8.60;1.00;;;;;;4508667;26;20230;-56
2024/04/18 09:06:06;;;;;;;2.00;1.37;;;8.60;1.00;;;;;;4504216;26;20223;-56
2024/04/18 09:08:09;;;;;;;2.83;1.50;;;8.70;1.00;;;;;;4506184;26;20239;-56
2024/04/18 09:10:10;;;;;;;1.70;1.20;;;8.60;1.00;;;;;;4508305;26;20234;-56
2024/04/18 09:12:12;;;;;;;3.20;1.50;;;8.60;1.00;;;;;;4508747;26;20238;-56
2024/04/18 09:14:15;;;;;;;3.63;1.20;;;8.50;99.90;;;;;;4478009;26;20363;-56
2024/04/18 09:16:16;;;;;;;1.43;1.10;;;8.50;1.00;;;;;;4508759;26;20265;-56
2024/04/18 09:18:17;;;;;;;2.20;1.07;;;8.60;99.90;;;;;;4505875;26;20387;-56
2024/04/18 09:20:17;;;;;;;2.80;1.10;;;8.60;1.00;;;;;;4508802;26;20549;-56
2024/04/18 09:22:18;;;;;;;2.13;1.10;;;8.70;99.90;;;;;;4508002;26;20223;-56
2024/04/18 09:24:20;;;;;;;5.63;1.30;;;8.70;1.00;;;;;;4509056;26;20218;-56
2024/04/18 09:26:20;;;;;;;2.20;1.17;;;8.70;1.00;;;;;;4506986;26;20230;-57
2024/04/18 09:28:21;;;;;;;1.37;1.17;;;8.70;9.50;;;;;;4475760;26;20236;-56
2024/04/18 09:30:22;;;;;;;1.80;1.03;;;8.70;1.00;;;;;;4506258;26;20354;-56
2024/04/18 09:32:23;;;;;;;1.90;1.00;;;8.70;1.00;;;;;;4503742;26;20230;-56
2024/04/18 09:34:25;;;;;;;1.57;0.90;;;8.70;99.90;;;;;;4477089;26;20274;-56
2024/04/18 09:36:25;;;;;;;1.97;1.20;;;8.70;99.90;;;;;;4506708;26;20227;-56
2024/04/18 09:38:33;;;;;;;1.97;1.10;;;8.70;99.90;;;;;;4506784;26;20260;-56
2024/04/18 09:40:43;;;;;;;2.33;1.00;;;8.60;1.00;;;;;;4507807;26;20226;-56
2024/04/18 09:42:56;;;;;;;1.37;0.83;;;8.70;60.70;;;;;;4507024;26;20962;-56
2024/04/18 09:45:02;;;;;;;1.47;1.03;;;8.80;1.00;;;;;;4505986;26;20735;-56
2024/04/18 09:47:04;;;;;;;1.23;0.90;;;8.90;1.00;;;;;;4506733;26;20757;-56
2024/04/18 09:49:06;;;;;;;1.50;0.87;;;8.90;99.90;;;;;;4505933;26;20738;-56
2024/04/18 09:51:07;;;;;;;2.10;1.00;;;8.90;1.00;;;;;;4506403;26;20238;-56
2024/04/18 09:53:10;;;;;;;1.47;1.20;;;9.00;1.00;;;;;;4508680;26;20238;-56
2024/04/18 09:55:13;;;;;;;1.50;1.00;;;9.20;99.90;;;;;;4507945;26;20277;-56
2024/04/18 09:57:15;;;;;;;1.00;0.87;;;9.30;99.90;;;;;;4507068;26;20230;-56
2024/04/18 09:59:16;;;;;;;1.30;1.00;;;9.40;15.00;;;;;;4506067;26;20264;-56
2024/04/18 10:01:18;;;;;;;2.03;0.93;;;9.40;55.60;;;;;;4506415;26;20242;-56
2024/04/18 10:03:20;;;;;;;2.97;0.90;;;9.60;1.00;;;;;;4506962;26;20316;-56
2024/04/18 10:05:23;;;;;;;1.90;0.80;;;9.50;99.90;;;;;;4503994;26;20306;-63
2024/04/18 10:07:25;;;;;;;2.97;0.90;;;9.50;99.90;;;;;;4507386;26;20230;-64
2024/04/18 10:09:26;;;;;;;1.87;0.87;;;9.40;99.90;;;;;;4506032;26;20226;-64
2024/04/18 10:11:28;;;;;;;1.47;0.80;;;9.40;1.00;;;;;;4506868;26;20230;-64
2024/04/18 10:13:28;;;;;;;1.30;0.70;;;9.50;1.00;;;;;;4476071;26;20324;-64
2024/04/18 10:15:29;;;;;;;2.20;0.80;;;9.70;1.00;;;;;;4506908;26;20269;-64
2024/04/18 10:17:31;;;;;;;1.27;0.80;;;9.80;99.90;;;;;;4507515;26;20223;-64
2024/04/18 10:19:32;;;;;;;2.10;1.00;;;9.70;1.00;;;;;;4506176;26;20318;-64
2024/04/18 10:21:35;;;;;;;1.57;1.13;;;9.70;1.00;;;;;;4475120;26;20303;-64
2024/04/18 10:23:35;;;;;;;1.73;0.90;;;9.60;99.90;;;;;;4508172;26;20234;-64
2024/04/18 10:25:45;;;;;;;3.87;1.03;;;9.60;1.00;;;;;;4476209;26;20738;-64
2024/04/18 10:27:46;;;;;;;2.00;0.93;;;9.70;1.00;;;;;;4505836;26;20226;-64
2024/04/18 10:29:57;;;;;;;2.00;1.00;;;9.80;1.00;;;;;;4505497;26;20536;-64
2024/04/18 10:31:57;;;;;;;1.17;0.70;;;9.90;1.00;;;;;;4498965;26;20281;-64
2024/04/18 10:33:59;;;;;;;1.13;0.80;;;10.10;1.00;;;;;;4508280;26;20700;-64
2024/04/18 10:36:01;;;;;;;2.70;1.07;;;10.20;99.90;;;;;;4507342;26;20238;-64
2024/04/18 10:38:02;;;;;;;2.00;0.70;;;10.20;99.90;;;;;;4508019;26;20289;-65
2024/04/18 10:40:05;;;;;;;1.83;0.83;;;10.20;99.90;;;;;;4507699;26;20238;-65
2024/04/18 10:42:08;;;;;;;2.73;1.20;;;10.20;99.90;;;;;;4500916;26;20234;-65